Airfield :
LOGIN :

Register | Disclaimer

   EN    FR    IT 

 










Legend :    VFR   Marginal VFR   IFR   Intensive IFR   Very Intensive IFR
Visi :
Ceiling :
>= 8 km
>= 3000ft
5 to 8 km
1000 to 3000 ft
1500m to 5 km
500 to 1000 ft
800 to 1500m
200 to 500 ft
< 800m
< 200 ft
Symbols :   Thunderstorms  Fog  Heavy snow  Heavy precipitations  Wind > 20 kt
SIGMETs :     Misc.  Thunderstorms  Icing  Turbulence  Mountain Waves  Volcanic Ashes






- Airport Elevation : 529 ft
- IATA code : CHR


LFLX - Chateauroux

CURRENT METAR :
  • 282130Z AUTO 19002KT 9999 OVC046 05/03 Q1022 NOSIG

EXPIRED METARs :
  • 282100Z AUTO 14003KT 9999 OVC046 05/03 Q1022 NOSIG
  • 282030Z AUTO 16004KT 9999 OVC041 05/03 Q1022 NOSIG
  • 282000Z AUTO 16003KT 9999 SCT043 05/02 Q1022 NOSIG
  • 281930Z AUTO 18004KT CAVOK 05/02 Q1022 NOSIG
  • 281900Z AUTO 19003KT CAVOK 06/02 Q1022 NOSIG
  • 281830Z AUTO 22004KT CAVOK 06/02 Q1023 NOSIG
  • 281800Z AUTO 23005KT CAVOK 07/03 Q1023 NOSIG
  • 281730Z AUTO 24004KT CAVOK 08/02 Q1022 NOSIG
  • 281700Z AUTO 23004KT CAVOK 09/03 Q1022 NOSIG

TAF TAF LFLX
Valid from the 28 at 18:00 until the 01 at 00:00 UTC


281700Z 2818/2924 20008KT 9999 FEW020 BKN035
BECMG 2900/2903 BKN010 OVC020
PROB40
TEMPO 2903/2910 4000 -RADZ OVC005
BECMG 2910/2913 BKN015
TEMPO 2920/2923 26015G25KT 4000 RA BKN008



MET'MAP, your aeronautical weather chart ! - Copyright ORBIFLY December 2007 - Disclaimer

ORBIFLY MET'MAP TEAM :

Programming & Development : Alexandra Zaïnal
Original concept : Baudouin d'Aumeries
Technical & hardware support : Manuel Goepfert
Assistance : Marc-Olivier Méhu




SOURCES & CREDITS :

   NOAA